createdAt,value
2022-11-26T00:00:49.080Z,100854.78
2022-11-26T00:03:16.965Z,100860.81
2022-11-26T00:05:45.889Z,100856.75
2022-11-26T00:08:17.787Z,100864.69
2022-11-26T00:10:53.777Z,100873.06
2022-11-26T00:13:22.918Z,100866.22
2022-11-26T00:15:50.987Z,100873.34
2022-11-26T00:18:18.554Z,100874.59
2022-11-26T00:20:47.232Z,100876.28
2022-11-26T00:23:21.146Z,100866.94
2022-11-26T00:25:52.011Z,100875.88
2022-11-26T00:28:28.718Z,100872.25
2022-11-26T00:30:57.762Z,100880.50
2022-11-26T00:33:27.015Z,100886.19
2022-11-26T00:35:57.085Z,100877.69
2022-11-26T00:38:24.812Z,100884.97
2022-11-26T00:40:53.793Z,100884.38
2022-11-26T00:43:21.196Z,100883.03
2022-11-26T00:45:50.326Z,100895.84
2022-11-26T00:48:19.344Z,100896.41
2022-11-26T00:50:49.091Z,100900.03
2022-11-26T00:53:19.185Z,100902.53
2022-11-26T00:55:48.686Z,100903.53
2022-11-26T00:58:23.864Z,100908.69
2022-11-26T01:00:51.883Z,100907.59
2022-11-26T01:03:19.688Z,100906.75
2022-11-26T01:05:50.177Z,100911.06
2022-11-26T01:08:28.778Z,100912.88
2022-11-26T01:10:56.298Z,100918.75
2022-11-26T01:13:25.073Z,100917.59
2022-11-26T01:15:52.633Z,100925.16
2022-11-26T01:18:21.180Z,100921.88
2022-11-26T01:20:49.051Z,100937.91
2022-11-26T01:23:18.758Z,100944.19
2022-11-26T01:25:47.359Z,100939.19
2022-11-26T01:28:18.012Z,100943.06
2022-11-26T01:30:47.461Z,100948.09
2022-11-26T01:33:14.935Z,100949.94
2022-11-26T01:35:42.336Z,100955.63
2022-11-26T01:38:12.106Z,100956.22
2022-11-26T01:41:04.284Z,100957.97
2022-11-26T01:43:34.503Z,100966.09
2022-11-26T01:46:03.346Z,100972.91
2022-11-26T01:48:33.444Z,100968.88
2022-11-26T01:51:03.507Z,100975.69
2022-11-26T01:53:34.899Z,100980.03
2022-11-26T01:56:05.253Z,100975.66
2022-11-26T01:58:39.620Z,100985.66
2022-11-26T02:01:09.079Z,100987.56
2022-11-26T02:03:45.194Z,100983.09
2022-11-26T02:06:16.639Z,100989.25
2022-11-26T02:08:44.406Z,100991.88
2022-11-26T02:11:19.564Z,100989.69
2022-11-26T02:13:48.731Z,100995.25
2022-11-26T02:16:25.455Z,101000.94
2022-11-26T02:19:03.255Z,100996.03
2022-11-26T02:21:32.981Z,100995.88
2022-11-26T02:24:32.643Z,100995.09
2022-11-26T02:27:16.305Z,100999.44
2022-11-26T02:30:04.700Z,100996.09
2022-11-26T02:32:35.539Z,100999.41
2022-11-26T02:35:06.283Z,101000.22
2022-11-26T02:37:37.084Z,101010.25
2022-11-26T02:40:05.327Z,101009.09
2022-11-26T02:42:35.169Z,101021.78
2022-11-26T02:45:07.751Z,101014.47
2022-11-26T02:47:38.783Z,101013.75
2022-11-26T02:50:09.786Z,101017.41
2022-11-26T02:52:40.349Z,101013.38
2022-11-26T02:55:09.473Z,101023.97
2022-11-26T02:57:42.547Z,101022.94
2022-11-26T03:00:12.675Z,101021.66
2022-11-26T03:02:44.630Z,101033.72
2022-11-26T03:05:13.620Z,101029.34
2022-11-26T03:07:41.455Z,101035.72
2022-11-26T03:10:09.486Z,101030.81
2022-11-26T03:12:36.908Z,101031.78
2022-11-26T03:15:04.863Z,101030.50
2022-11-26T03:17:35.695Z,101025.41
2022-11-26T03:20:04.687Z,101027.06
2022-11-26T03:22:32.190Z,101032.69
2022-11-26T03:24:59.610Z,101033.22
2022-11-26T03:27:27.127Z,101046.50
2022-11-26T03:29:54.630Z,101041.31
2022-11-26T03:32:22.073Z,101037.28
2022-11-26T03:34:51.087Z,101029.38
2022-11-26T03:37:18.588Z,101037.03
2022-11-26T03:39:45.976Z,101035.34
2022-11-26T03:42:13.457Z,101032.50
2022-11-26T03:44:41.066Z,101029.53
2022-11-26T03:47:08.515Z,101032.25
2022-11-26T03:49:35.939Z,101020.47
2022-11-26T03:52:04.896Z,101020.22
2022-11-26T03:54:32.341Z,101026.94
2022-11-26T03:56:59.779Z,101028.94
2022-11-26T03:59:27.280Z,101030.09
2022-11-26T04:01:55.453Z,101017.63
2022-11-26T04:04:22.959Z,101026.75
2022-11-26T04:06:50.387Z,101020.63
2022-11-26T04:09:19.215Z,101019.38
2022-11-26T04:11:47.827Z,101027.81
2022-11-26T04:14:15.349Z,101026.34
2022-11-26T04:16:42.833Z,101035.84
2022-11-26T04:19:10.298Z,101034.88
2022-11-26T04:21:37.771Z,101041.22
2022-11-26T04:24:05.670Z,101041.66
2022-11-26T04:26:34.497Z,101042.31
2022-11-26T04:29:01.906Z,101053.16
2022-11-26T04:31:29.360Z,101063.34
2022-11-26T04:33:56.884Z,101063.94
2022-11-26T04:36:24.503Z,101064.56
2022-11-26T04:38:51.951Z,101068.28
2022-11-26T04:41:19.489Z,101065.94
2022-11-26T04:43:48.291Z,101063.03
2022-11-26T04:46:15.778Z,101074.28
2022-11-26T04:48:43.312Z,101076.47
2022-11-26T04:51:10.711Z,101073.63
2022-11-26T04:53:38.126Z,101083.09
2022-11-26T04:56:05.755Z,101087.63
2022-11-26T04:58:33.159Z,101093.19
2022-11-26T05:01:02.003Z,101097.09
2022-11-26T05:03:29.804Z,101097.09
2022-11-26T05:05:57.252Z,101101.63
2022-11-26T05:08:24.722Z,101106.81
2022-11-26T05:10:54.082Z,101101.88
2022-11-26T05:13:21.643Z,101114.44
2022-11-26T05:15:49.117Z,101115.66
2022-11-26T05:18:18.130Z,101109.44
2022-11-26T05:20:45.573Z,101114.66
2022-11-26T05:23:13.147Z,101117.69
2022-11-26T05:25:40.604Z,101120.16
2022-11-26T05:28:08.036Z,101133.56
2022-11-26T05:30:35.631Z,101132.53
2022-11-26T05:33:03.037Z,101133.00
2022-11-26T05:35:31.823Z,101138.66
2022-11-26T05:37:59.273Z,101130.50
2022-11-26T05:40:26.976Z,101135.47
2022-11-26T05:42:54.506Z,101131.84
2022-11-26T05:45:22.013Z,101140.97
2022-11-26T05:47:49.408Z,101144.00
2022-11-26T05:50:17.755Z,101153.00
2022-11-26T05:52:46.471Z,101152.47
2022-11-26T05:55:16.349Z,101146.22
2022-11-26T05:57:43.816Z,101156.72
2022-11-26T06:00:12.796Z,101153.31
2022-11-26T06:02:41.278Z,101157.13
2022-11-26T06:05:09.531Z,101152.91
2022-11-26T06:07:40.581Z,101162.94
2022-11-26T06:10:13.034Z,101166.97
2022-11-26T06:12:40.556Z,101170.81
2022-11-26T06:15:08.745Z,101166.06
2022-11-26T06:17:38.276Z,101175.88
2022-11-26T06:20:07.022Z,101166.38
2022-11-26T06:22:37.894Z,101175.03
2022-11-26T06:25:06.066Z,101180.13
2022-11-26T06:27:35.533Z,101189.63
2022-11-26T06:30:04.561Z,101198.50
2022-11-26T06:32:32.590Z,101193.25
2022-11-26T06:35:00.042Z,101195.69
2022-11-26T06:37:27.826Z,101184.81
2022-11-26T06:39:55.347Z,101194.56
2022-11-26T06:42:22.771Z,101195.41
2022-11-26T06:44:53.221Z,101209.06
2022-11-26T06:47:23.302Z,101221.59
2022-11-26T06:49:50.699Z,101217.53
2022-11-26T06:52:18.208Z,101217.75
2022-11-26T06:54:45.624Z,101220.72
2022-11-26T06:57:15.011Z,101226.41
2022-11-26T06:59:42.460Z,101221.16
2022-11-26T07:02:12.181Z,101218.00
2022-11-26T07:04:39.761Z,101212.81
2022-11-26T07:07:07.396Z,101222.66
2022-11-26T07:09:34.812Z,101227.41
2022-11-26T07:12:02.216Z,101220.00
2022-11-26T07:14:29.637Z,101224.22
2022-11-26T07:16:57.103Z,101227.88
2022-11-26T07:19:26.074Z,101230.22
2022-11-26T07:21:54.083Z,101232.63
2022-11-26T07:24:21.479Z,101236.66
2022-11-26T07:26:49.911Z,101246.63
2022-11-26T07:29:17.462Z,101239.19
2022-11-26T07:31:44.967Z,101241.19
2022-11-26T07:34:12.429Z,101244.31
2022-11-26T07:36:43.336Z,101252.13
2022-11-26T07:39:11.913Z,101259.41
2022-11-26T07:41:39.558Z,101259.47
2022-11-26T07:44:06.999Z,101260.38
2022-11-26T07:46:37.434Z,101259.88
2022-11-26T07:49:04.960Z,101260.16
2022-11-26T07:51:33.563Z,101268.19
2022-11-26T07:54:07.510Z,101264.84
2022-11-26T07:56:35.375Z,101263.31
2022-11-26T07:59:02.857Z,101270.81
2022-11-26T08:01:31.996Z,101273.81
2022-11-26T08:04:00.631Z,101272.22
2022-11-26T08:06:30.045Z,101268.22
2022-11-26T08:08:59.945Z,101266.25
2022-11-26T08:11:30.372Z,101266.59
2022-11-26T08:13:59.624Z,101271.59
2022-11-26T08:16:29.017Z,101269.53
2022-11-26T08:18:57.326Z,101263.41
2022-11-26T08:21:24.907Z,101270.72
2022-11-26T08:23:52.852Z,101260.72
2022-11-26T08:26:25.254Z,101268.50
2022-11-26T08:29:00.493Z,101271.13
2022-11-26T08:31:28.621Z,101284.09
2022-11-26T08:33:57.815Z,101288.66
2022-11-26T08:36:25.327Z,101288.13
2022-11-26T08:38:52.746Z,101295.00
2022-11-26T08:41:20.394Z,101296.47
2022-11-26T08:46:37.322Z,101292.38
2022-11-26T08:49:05.072Z,101300.28
2022-11-26T08:51:32.553Z,101299.03
2022-11-26T08:54:00.051Z,101292.88
2022-11-26T08:56:27.482Z,101294.41
2022-11-26T08:58:54.907Z,101293.81
2022-11-26T09:01:24.409Z,101294.16
2022-11-26T09:03:54.664Z,101292.06
2022-11-26T09:06:23.389Z,101293.44
2022-11-26T09:09:08.723Z,101296.81
2022-11-26T09:11:38.583Z,101287.09
2022-11-26T09:14:06.256Z,101290.78
2022-11-26T09:16:33.924Z,101290.53
2022-11-26T09:19:04.194Z,101289.81
2022-11-26T09:21:34.500Z,101297.06
2022-11-26T09:24:02.047Z,101311.16
2022-11-26T09:26:31.171Z,101307.94
2022-11-26T09:28:58.799Z,101317.63
2022-11-26T09:31:26.673Z,101319.06
2022-11-26T09:33:56.046Z,101318.13
2022-11-26T09:36:24.841Z,101321.28
2022-11-26T09:38:54.760Z,101329.25
2022-11-26T09:41:31.775Z,101334.81
2022-11-26T09:44:16.362Z,101329.06
2022-11-26T09:47:10.878Z,101330.78
2022-11-26T09:49:40.571Z,101331.41
2022-11-26T09:52:10.376Z,101344.63
2022-11-26T09:54:39.141Z,101342.94
2022-11-26T09:58:26.671Z,101328.00
2022-11-26T10:00:56.497Z,101336.09
2022-11-26T10:03:25.883Z,101337.41
2022-11-26T10:05:58.931Z,101344.16
2022-11-26T10:08:38.626Z,101334.69
2022-11-26T10:11:09.675Z,101333.34
2022-11-26T10:13:44.419Z,101332.34
2022-11-26T10:16:16.143Z,101335.09
2022-11-26T10:18:48.819Z,101333.84
2022-11-26T10:21:32.413Z,101331.31
2022-11-26T10:24:11.259Z,101340.19
2022-11-26T10:26:40.608Z,101341.16
2022-11-26T10:29:19.391Z,101342.59
2022-11-26T10:31:48.231Z,101344.56
2022-11-26T10:34:19.784Z,101342.94
2022-11-26T10:36:48.362Z,101342.00
2022-11-26T10:39:17.524Z,101343.13
2022-11-26T10:41:45.606Z,101343.84
2022-11-26T10:44:34.150Z,101338.09
2022-11-26T10:47:21.333Z,101341.16
2022-11-26T10:49:49.272Z,101333.31
2022-11-26T10:52:18.592Z,101344.34
2022-11-26T10:54:47.128Z,101357.97
2022-11-26T10:57:16.871Z,101353.31
2022-11-26T10:59:51.159Z,101350.66
2022-11-26T11:02:31.010Z,101350.97
2022-11-26T11:04:59.807Z,101354.59
2022-11-26T11:07:41.605Z,101349.38
2022-11-26T11:10:15.859Z,101349.38
2022-11-26T11:12:44.279Z,101353.50
2022-11-26T11:15:22.613Z,101351.66
2022-11-26T11:17:56.795Z,101356.16
2022-11-26T11:20:29.740Z,101348.91
2022-11-26T11:23:03.501Z,101340.16
2022-11-26T11:25:32.484Z,101333.09
2022-11-26T11:28:12.049Z,101334.38
2022-11-26T11:30:42.378Z,101329.63
2022-11-26T11:33:12.441Z,101329.34
2022-11-26T11:35:39.967Z,101335.78
2022-11-26T11:38:22.563Z,101319.69
2022-11-26T11:40:51.832Z,101318.88
2022-11-26T11:43:22.484Z,101322.88
2022-11-26T11:46:09.937Z,101314.84
2022-11-26T11:48:47.081Z,101323.72
2022-11-26T11:51:24.718Z,101319.44
2022-11-26T11:54:03.496Z,101320.97
2022-11-26T11:56:35.954Z,101318.25
2022-11-26T11:59:21.882Z,101311.66
2022-11-26T12:02:09.750Z,101305.16
2022-11-26T12:04:52.236Z,101314.84
2022-11-26T12:07:31.549Z,101306.47
2022-11-26T12:10:06.770Z,101306.03
2022-11-26T12:12:36.446Z,101316.16
2022-11-26T12:15:07.704Z,101315.91
2022-11-26T12:17:39.815Z,101318.81
2022-11-26T12:20:15.526Z,101320.19
2022-11-26T12:22:46.418Z,101312.16
2022-11-26T12:25:21.733Z,101313.84
2022-11-26T12:27:56.046Z,101316.38
2022-11-26T12:30:27.392Z,101309.63
2022-11-26T12:32:58.728Z,101315.38
2022-11-26T12:35:30.019Z,101313.00
2022-11-26T12:37:59.595Z,101302.06
2022-11-26T12:40:32.611Z,101309.31
2022-11-26T12:43:03.499Z,101312.38
2022-11-26T12:45:45.833Z,101317.03
2022-11-26T12:48:25.911Z,101317.91
2022-11-26T12:50:56.012Z,101316.84
2022-11-26T12:53:32.896Z,101314.84
2022-11-26T12:56:07.335Z,101319.75
2022-11-26T12:58:42.224Z,101318.78
2022-11-26T13:01:10.468Z,101323.97
2022-11-26T13:03:39.423Z,101319.75
2022-11-26T13:06:12.670Z,101330.47
2022-11-26T13:08:48.989Z,101326.19
2022-11-26T13:11:26.087Z,101313.47
2022-11-26T13:13:59.251Z,101321.03
2022-11-26T13:16:34.732Z,101320.59
2022-11-26T13:19:07.832Z,101311.38
2022-11-26T13:21:44.901Z,101316.94
2022-11-26T13:24:24.318Z,101311.09
2022-11-26T13:27:07.399Z,101305.03
2022-11-26T13:29:50.351Z,101303.63
2022-11-26T13:32:39.291Z,101316.41
2022-11-26T13:35:19.327Z,101320.47
2022-11-26T13:38:07.934Z,101308.84
2022-11-26T13:40:58.865Z,101312.47
2022-11-26T13:43:55.228Z,101311.44
2022-11-26T13:46:29.038Z,101308.94
2022-11-26T13:49:01.541Z,101315.41
2022-11-26T13:51:33.855Z,101305.72
2022-11-26T13:54:07.133Z,101303.50
2022-11-26T13:56:36.111Z,101313.75
2022-11-26T13:59:05.805Z,101304.97
2022-11-26T14:01:38.023Z,101307.94
2022-11-26T14:04:07.706Z,101303.41
2022-11-26T14:06:37.080Z,101305.38
2022-11-26T14:09:05.882Z,101305.25
2022-11-26T14:11:57.647Z,101303.03
2022-11-26T14:14:33.157Z,101295.31
2022-11-26T14:17:32.418Z,101299.41
2022-11-26T14:20:09.211Z,101292.81
2022-11-26T14:22:38.833Z,101299.94
2022-11-26T14:25:08.697Z,101304.81
2022-11-26T14:27:37.843Z,101302.72
2022-11-26T14:30:19.539Z,101299.09
2022-11-26T14:32:51.758Z,101296.84
2022-11-26T14:35:23.560Z,101295.16
2022-11-26T14:37:54.274Z,101308.84
2022-11-26T14:40:24.969Z,101300.72
2022-11-26T14:43:07.808Z,101298.88
2022-11-26T14:45:35.463Z,101297.91
2022-11-26T14:48:03.383Z,101292.59
2022-11-26T14:50:31.571Z,101286.59
2022-11-26T14:53:04.593Z,101290.53
2022-11-26T14:55:32.608Z,101289.31
2022-11-26T14:58:06.137Z,101282.63
2022-11-26T15:00:36.730Z,101283.91
2022-11-26T15:03:04.612Z,101288.66
2022-11-26T15:05:33.895Z,101285.81
2022-11-26T15:08:04.356Z,101288.94
2022-11-26T15:10:33.433Z,101276.78
2022-11-26T15:13:04.703Z,101276.56
2022-11-26T15:15:32.212Z,101271.69
2022-11-26T15:18:03.693Z,101272.44
2022-11-26T15:20:31.375Z,101269.66
2022-11-26T15:23:00.107Z,101274.38
2022-11-26T15:25:33.532Z,101273.63
2022-11-26T15:28:03.858Z,101268.72
2022-11-26T15:30:34.058Z,101275.25
2022-11-26T15:33:03.204Z,101267.75
2022-11-26T15:35:33.108Z,101268.50
2022-11-26T15:38:00.663Z,101263.41
2022-11-26T15:40:31.384Z,101267.34
2022-11-26T15:43:00.963Z,101262.97
2022-11-26T15:45:35.974Z,101262.41
2022-11-26T15:48:04.667Z,101258.50
2022-11-26T15:50:33.620Z,101253.31
2022-11-26T15:53:03.809Z,101255.41
2022-11-26T15:55:34.479Z,101262.41
2022-11-26T15:58:04.460Z,101264.94
2022-11-26T16:00:34.374Z,101261.03
2022-11-26T16:03:02.099Z,101262.03
2022-11-26T16:05:34.600Z,101271.84
2022-11-26T16:08:03.619Z,101266.66
2022-11-26T16:10:35.311Z,101269.50
2022-11-26T16:13:08.790Z,101280.97
2022-11-26T16:15:36.770Z,101281.88
2022-11-26T16:18:05.206Z,101285.56
2022-11-26T16:20:32.634Z,101291.25
2022-11-26T16:23:00.777Z,101289.19
2022-11-26T16:25:29.610Z,101284.22
2022-11-26T16:28:13.127Z,101287.97
2022-11-26T16:30:42.673Z,101295.78
2022-11-26T16:33:10.489Z,101281.81
2022-11-26T16:35:46.440Z,101284.06
2022-11-26T16:38:19.011Z,101289.69
2022-11-26T16:40:46.616Z,101290.00
2022-11-26T16:43:15.473Z,101299.97
2022-11-26T16:45:43.463Z,101298.00
2022-11-26T16:48:20.003Z,101299.03
2022-11-26T16:50:47.436Z,101296.84
2022-11-26T16:53:14.980Z,101282.09
2022-11-26T16:55:42.407Z,101285.94
2022-11-26T16:58:17.601Z,101275.06
2022-11-26T17:00:45.046Z,101269.94
2022-11-26T17:03:14.497Z,101267.53
2022-11-26T17:05:42.403Z,101264.75
2022-11-26T17:08:11.872Z,101269.75
2022-11-26T17:10:39.355Z,101264.16
2022-11-26T17:13:06.822Z,101271.41
2022-11-26T17:15:35.883Z,101274.25
2022-11-26T17:18:06.219Z,101265.75
2022-11-26T17:20:33.615Z,101274.06
2022-11-26T17:23:01.034Z,101275.53
2022-11-26T17:25:30.539Z,101273.47
2022-11-26T17:27:57.963Z,101271.69
2022-11-26T17:30:25.550Z,101270.00
2022-11-26T17:32:54.359Z,101270.81
2022-11-26T17:35:21.848Z,101272.03
2022-11-26T17:37:49.313Z,101272.03
2022-11-26T17:40:18.058Z,101273.44
2022-11-26T17:42:45.514Z,101275.19
2022-11-26T17:45:13.150Z,101267.22
2022-11-26T17:47:41.295Z,101272.34
2022-11-26T17:50:16.616Z,101266.13
2022-11-26T17:52:44.047Z,101276.09
2022-11-26T17:55:12.550Z,101270.06
2022-11-26T17:57:39.967Z,101272.34
2022-11-26T18:00:09.572Z,101272.44
2022-11-26T18:02:37.065Z,101272.63
2022-11-26T18:05:04.886Z,101264.84
2022-11-26T18:07:33.720Z,101271.84
2022-11-26T18:10:01.167Z,101274.34
2022-11-26T18:12:29.335Z,101268.59
2022-11-26T18:14:57.885Z,101264.22
2022-11-26T18:17:25.665Z,101260.03
2022-11-26T18:19:53.132Z,101262.78
2022-11-26T18:22:22.715Z,101263.63
2022-11-26T18:24:56.984Z,101269.78
2022-11-26T18:27:26.546Z,101268.50
2022-11-26T18:29:54.071Z,101271.72
2022-11-26T18:32:21.638Z,101274.63
2022-11-26T18:34:49.646Z,101269.00
2022-11-26T18:37:17.478Z,101272.50
2022-11-26T18:39:44.900Z,101266.41
2022-11-26T18:45:01.322Z,101272.09
2022-11-26T18:47:29.051Z,101265.75
2022-11-26T18:49:56.569Z,101262.28
2022-11-26T18:52:24.006Z,101265.13
2022-11-26T18:54:51.466Z,101263.44
2022-11-26T18:57:20.218Z,101261.31
2022-11-26T18:59:48.167Z,101258.78
2022-11-26T19:02:15.678Z,101258.47
2022-11-26T19:04:43.104Z,101262.16
2022-11-26T19:07:10.903Z,101260.06
2022-11-26T19:09:38.882Z,101256.97
2022-11-26T19:12:07.306Z,101254.63
2022-11-26T19:14:36.101Z,101249.22
2022-11-26T19:17:03.669Z,101252.91
2022-11-26T19:19:32.966Z,101250.97
2022-11-26T19:22:01.709Z,101258.31
2022-11-26T19:24:29.536Z,101255.59
2022-11-26T19:26:57.058Z,101261.63
2022-11-26T19:29:24.790Z,101262.44
2022-11-26T19:31:53.624Z,101260.66
2022-11-26T19:34:21.048Z,101259.81
2022-11-26T19:36:49.219Z,101248.72
2022-11-26T19:39:18.166Z,101252.81
2022-11-26T19:41:45.638Z,101245.75
2022-11-26T19:44:13.082Z,101250.53
2022-11-26T19:46:41.739Z,101249.00
2022-11-26T19:49:12.500Z,101237.44
2022-11-26T19:51:40.315Z,101234.78
2022-11-26T19:54:07.891Z,101236.72
2022-11-26T19:56:35.607Z,101237.56
2022-11-26T19:59:03.248Z,101231.91
2022-11-26T20:01:32.028Z,101235.19
2022-11-26T20:04:00.873Z,101233.13
2022-11-26T20:06:31.566Z,101231.56
2022-11-26T20:08:59.123Z,101226.63
2022-11-26T20:11:27.283Z,101229.66
2022-11-26T20:13:55.321Z,101237.31
2022-11-26T20:16:25.610Z,101231.06
2022-11-26T20:18:53.564Z,101228.50
2022-11-26T20:21:22.619Z,101240.28
2022-11-26T20:23:51.775Z,101236.19
2022-11-26T20:26:21.624Z,101241.63
2022-11-26T20:28:49.666Z,101227.53
2022-11-26T20:31:22.082Z,101230.63
2022-11-26T20:33:51.359Z,101230.19
2022-11-26T20:36:20.718Z,101229.72
2022-11-26T20:38:48.172Z,101234.03
2022-11-26T20:41:17.415Z,101214.69
2022-11-26T20:43:45.269Z,101211.84
2022-11-26T20:46:14.710Z,101220.81
2022-11-26T20:48:43.707Z,101228.03
2022-11-26T20:51:13.582Z,101235.56
2022-11-26T20:53:41.837Z,101229.72
2022-11-26T20:56:09.646Z,101232.47
2022-11-26T20:58:38.425Z,101241.63
2022-11-26T21:01:06.538Z,101240.53
2022-11-26T21:03:34.011Z,101238.13
2022-11-26T21:06:03.371Z,101237.66
2022-11-26T21:08:30.978Z,101239.72
2022-11-26T21:10:58.430Z,101241.66
2022-11-26T21:13:25.874Z,101240.56
2022-11-26T21:15:54.996Z,101255.59
2022-11-26T21:18:22.435Z,101259.44
2022-11-26T21:20:50.224Z,101265.81
2022-11-26T21:23:17.643Z,101280.47
2022-11-26T21:25:45.059Z,101279.75
2022-11-26T21:28:14.900Z,101285.16
2022-11-26T21:30:42.858Z,101289.09
2022-11-26T21:33:11.660Z,101280.81
2022-11-26T21:35:39.111Z,101271.94
2022-11-26T21:38:06.812Z,101279.09
2022-11-26T21:40:34.255Z,101281.75
2022-11-26T21:43:01.663Z,101275.63
2022-11-26T21:45:29.584Z,101272.84
2022-11-26T21:47:56.998Z,101269.09
2022-11-26T21:50:25.748Z,101264.66
2022-11-26T21:52:53.194Z,101284.91
2022-11-26T21:55:21.987Z,101291.84
2022-11-26T21:57:49.400Z,101293.88
2022-11-26T22:00:18.125Z,101298.66
2022-11-26T22:02:45.594Z,101306.44
2022-11-26T22:05:13.085Z,101300.44
2022-11-26T22:07:42.061Z,101292.56
2022-11-26T22:10:10.948Z,101273.47
2022-11-26T22:12:38.375Z,101266.31
2022-11-26T22:15:06.599Z,101268.28
2022-11-26T22:17:35.753Z,101267.03
2022-11-26T22:20:03.696Z,101262.16
2022-11-26T22:22:32.093Z,101255.22
2022-11-26T22:25:00.830Z,101249.31
2022-11-26T22:27:28.248Z,101239.59
2022-11-26T22:29:55.695Z,101241.13
2022-11-26T22:32:23.150Z,101233.47
2022-11-26T22:34:50.537Z,101237.63
2022-11-26T22:37:17.956Z,101222.69
2022-11-26T22:39:47.748Z,101226.41
2022-11-26T22:42:19.877Z,101221.34
2022-11-26T22:44:47.305Z,101214.72
2022-11-26T22:47:14.723Z,101206.06
2022-11-26T22:49:43.613Z,101200.75
2022-11-26T22:52:11.790Z,101201.31
2022-11-26T22:54:39.188Z,101210.03
2022-11-26T22:57:06.646Z,101203.97
2022-11-26T22:59:35.419Z,101200.34
2022-11-26T23:02:02.824Z,101202.03
2022-11-26T23:04:30.216Z,101199.00
2022-11-26T23:06:57.674Z,101207.31
2022-11-26T23:09:25.142Z,101195.91
2022-11-26T23:11:52.605Z,101190.88
2022-11-26T23:14:20.037Z,101198.28
2022-11-26T23:16:48.855Z,101199.44
2022-11-26T23:19:17.303Z,101208.22
2022-11-26T23:21:46.577Z,101202.66
2022-11-26T23:24:14.483Z,101202.75
2022-11-26T23:26:42.748Z,101195.81
2022-11-26T23:29:11.203Z,101195.66
2022-11-26T23:31:40.680Z,101198.47
2022-11-26T23:34:10.224Z,101189.47
2022-11-26T23:36:38.149Z,101187.50
2022-11-26T23:39:07.565Z,101186.66
2022-11-26T23:41:35.420Z,101185.72
2022-11-26T23:44:03.380Z,101176.72
2022-11-26T23:46:32.727Z,101175.44
2022-11-26T23:49:00.315Z,101174.75
2022-11-26T23:51:31.602Z,101172.56
2022-11-26T23:53:59.043Z,101169.34
2022-11-26T23:56:28.616Z,101174.88
2022-11-26T23:58:57.378Z,101171.44
